Time;durP1;ratioP1;P1;durP2;ratioP2;P2;SDS_P1;SDS_P2;PMS_P1;PMS_P2;Temp;Humidity;BMP_temperature;BMP_pressure;BME280_temperature;BME280_humidity;BME280_pressure;Samples;Min_cycle;Max_cycle;Signal;HPM_P1;HPM_P2
2023/07/05 00:00:36;;;;;;;13.13;8.40;;;589.60;2432.00;;;;;;5077173;28;20118;-69
2023/07/05 00:03:02;;;;;;;17.15;8.10;;;589.60;2432.00;;;;;;5079184;28;20054;-69
2023/07/05 00:05:28;;;;;;;18.10;8.50;;;589.50;2432.00;;;;;;5078091;28;20036;-70
2023/07/05 00:07:54;;;;;;;16.40;8.75;;;589.50;2432.00;;;;;;5078805;28;20021;-70
2023/07/05 00:10:19;;;;;;;22.27;8.20;;;589.40;2432.00;;;;;;5077699;28;20036;-69
2023/07/05 00:12:45;;;;;;;18.17;8.98;;;589.50;2432.00;;;;;;5081186;28;20437;-71
2023/07/05 00:15:11;;;;;;;17.98;8.40;;;589.40;2432.00;;;;;;5084538;28;20073;-69
2023/07/05 00:17:37;;;;;;;21.33;7.80;;;589.30;2432.00;;;;;;5087495;28;20377;-69
2023/07/05 00:20:05;;;;;;;19.08;8.20;;;589.30;2432.00;;;;;;5077828;28;20385;-69
2023/07/05 00:22:31;;;;;;;19.27;8.95;;;589.30;2432.00;;;;;;5074980;28;20494;-69
2023/07/05 00:24:57;;;;;;;16.83;9.57;;;589.30;2432.00;;;;;;5077546;28;20044;-70
2023/07/05 00:27:25;;;;;;;18.58;7.57;;;589.30;2432.00;;;;;;5078101;28;20029;-70
2023/07/05 00:29:53;;;;;;;22.27;8.60;;;589.20;2432.00;;;;;;5077381;28;20032;-69
2023/07/05 00:32:19;;;;;;;18.95;8.27;;;589.20;2432.00;;;;;;5080511;28;20102;-72
2023/07/05 00:34:45;;;;;;;15.10;8.48;;;589.20;2432.00;;;;;;5080667;28;20020;-70
2023/07/05 00:37:11;;;;;;;15.82;8.65;;;589.20;2432.00;;;;;;5080628;28;20028;-70
2023/07/05 00:39:37;;;;;;;19.42;7.80;;;589.20;2432.00;;;;;;5082299;28;20078;-69
2023/07/05 00:42:04;;;;;;;14.48;7.82;;;589.10;2432.00;;;;;;5075436;28;20475;-71
2023/07/05 00:44:29;;;;;;;17.35;9.43;;;589.20;2432.00;;;;;;5078596;28;20020;-71
2023/07/05 00:47:27;;;;;;;12.73;8.27;;;589.20;2432.00;;;;;;5093810;28;20113;-74
2023/07/05 00:50:03;;;;;;;11.80;7.57;;;589.20;2432.00;;;;;;5075626;28;20024;-69
2023/07/05 00:52:29;;;;;;;15.48;7.90;;;589.00;2432.00;;;;;;5074601;28;20024;-70
2023/07/05 00:54:57;;;;;;;14.85;8.13;;;588.90;2432.00;;;;;;5074510;28;20031;-74
2023/07/05 00:57:27;;;;;;;15.13;8.05;;;588.90;2432.00;;;;;;5075051;28;20513;-69
2023/07/05 01:00:01;;;;;;;18.10;8.55;;;588.90;2432.00;;;;;;5074556;28;20107;-69
2023/07/05 01:02:27;;;;;;;20.58;8.77;;;588.90;2432.00;;;;;;5074381;28;20505;-70
2023/07/05 01:04:53;;;;;;;15.93;8.32;;;588.90;2432.00;;;;;;5074711;28;20024;-70
2023/07/05 01:07:19;;;;;;;17.55;8.77;;;564.10;2432.00;;;;;;5074445;28;20031;-69
2023/07/05 01:09:47;;;;;;;12.73;8.07;;;564.00;2432.00;;;;;;5074477;28;20028;-69
2023/07/05 01:12:22;;;;;;;20.38;9.00;;;564.10;2432.00;;;;;;5088893;28;20412;-70
2023/07/05 01:15:14;;;;;;;20.15;8.45;;;564.00;2432.00;;;;;;5074186;28;20094;-69
2023/07/05 01:18:03;;;;;;;15.95;8.50;;;564.00;2432.00;;;;;;5061975;28;20085;-70
2023/07/05 01:20:51;;;;;;;16.88;8.02;;;564.10;2432.00;;;;;;5089395;28;20033;-70
2023/07/05 01:23:50;;;;;;;14.70;8.50;;;564.10;2432.00;;;;;;5074067;28;20048;-72
2023/07/05 01:26:34;;;;;;;17.30;7.75;;;563.90;2432.00;;;;;;5074180;28;20394;-70
2023/07/05 01:29:37;;;;;;;12.65;7.97;;;564.00;2432.00;;;;;;5074009;28;20099;-72
2023/07/05 01:32:05;;;;;;;19.48;8.77;;;563.80;2432.00;;;;;;5073787;28;20032;-69
2023/07/05 01:34:43;;;;;;;13.85;8.50;;;563.80;2432.00;;;;;;5073756;28;20020;-69
2023/07/05 01:37:20;;;;;;;15.77;8.88;;;563.80;2432.00;;;;;;5073886;28;20074;-76
2023/07/05 01:39:46;;;;;;;16.50;8.05;;;563.80;2432.00;;;;;;5073873;28;20107;-69
2023/07/05 01:42:12;;;;;;;17.45;8.68;;;563.80;2432.00;;;;;;5073956;28;20056;-72
2023/07/05 01:44:38;;;;;;;15.15;8.85;;;563.80;2432.00;;;;;;5073536;28;20032;-70
2023/07/05 01:47:33;;;;;;;18.15;8.25;;;564.00;2432.00;;;;;;5073548;28;20025;-69
2023/07/05 01:50:21;;;;;;;15.57;8.40;;;564.00;2432.00;;;;;;5073682;28;20039;-69
2023/07/05 01:53:15;;;;;;;17.42;8.30;;;564.10;2432.00;;;;;;5073298;28;20466;-69
2023/07/05 01:55:50;;;;;;;17.20;8.65;;;563.90;2432.00;;;;;;5073264;28;20162;-70
2023/07/05 01:58:22;;;;;;;13.88;8.55;;;564.00;2432.00;;;;;;5073618;28;20032;-69
2023/07/05 02:00:50;;;;;;;18.63;8.10;;;564.10;2432.00;;;;;;5073144;28;20029;-71
2023/07/05 02:03:20;;;;;;;20.13;9.07;;;564.10;2432.00;;;;;;5073487;28;20487;-69
2023/07/05 02:05:47;;;;;;;20.65;8.38;;;564.10;2432.00;;;;;;5073509;28;20028;-69
2023/07/05 02:08:13;;;;;;;23.67;8.68;;;564.00;2432.00;;;;;;5073252;28;20033;-70
2023/07/05 02:10:39;;;;;;;17.20;8.50;;;564.00;2432.00;;;;;;5073464;28;20099;-69
2023/07/05 02:13:08;;;;;;;91.97;72.07;;;564.00;2432.00;;;;;;5073183;28;20537;-69
2023/07/05 02:15:35;;;;;;;168.98;145.68;;;564.00;2432.00;;;;;;5073084;28;20039;-69
2023/07/05 02:18:01;;;;;;;152.73;131.50;;;564.10;2432.00;;;;;;5072837;28;20017;-70
2023/07/05 02:20:28;;;;;;;193.88;164.90;;;564.10;2432.00;;;;;;5073052;28;20056;-73
2023/07/05 02:22:55;;;;;;;122.90;103.68;;;563.80;2432.00;;;;;;5072894;28;20020;-70
2023/07/05 02:25:21;;;;;;;68.95;53.63;;;563.70;2432.00;;;;;;5073003;28;20020;-70
2023/07/05 02:27:46;;;;;;;56.85;43.53;;;563.70;2432.00;;;;;;5072935;28;20024;-72
2023/07/05 02:30:13;;;;;;;91.45;68.20;;;563.80;2432.00;;;;;;5071967;28;20029;-69
2023/07/05 02:32:39;;;;;;;45.72;36.85;;;563.80;2432.00;;;;;;5072767;28;20543;-72
2023/07/05 02:35:08;;;;;;;27.30;19.70;;;563.80;2432.00;;;;;;5073237;28;20082;-70
2023/07/05 02:37:35;;;;;;;22.55;14.40;;;563.80;2432.00;;;;;;5072835;28;20028;-70
2023/07/05 02:40:01;;;;;;;22.90;11.27;;;563.90;2432.00;;;;;;5071801;28;20049;-69
2023/07/05 02:42:28;;;;;;;22.92;10.85;;;564.00;2432.00;;;;;;5072715;28;20031;-71
2023/07/05 02:44:55;;;;;;;24.67;11.55;;;564.00;2432.00;;;;;;5073006;28;20031;-73
2023/07/05 02:47:21;;;;;;;18.35;11.10;;;564.00;2432.00;;;;;;5072549;28;20496;-70
2023/07/05 02:49:47;;;;;;;13.93;8.60;;;563.90;2432.00;;;;;;5072869;28;20017;-69
2023/07/05 02:52:13;;;;;;;12.10;8.48;;;564.00;2432.00;;;;;;5072753;28;20028;-69
2023/07/05 02:54:38;;;;;;;17.80;9.13;;;564.00;2432.00;;;;;;5072781;28;20474;-70
2023/07/05 02:57:04;;;;;;;21.63;8.60;;;564.00;2432.00;;;;;;5072433;28;20048;-68
2023/07/05 02:59:30;;;;;;;12.48;7.97;;;564.00;2432.00;;;;;;5073000;28;20024;-69
2023/07/05 03:01:56;;;;;;;14.98;9.30;;;563.80;2432.00;;;;;;5072422;28;20028;-69
2023/07/05 03:04:22;;;;;;;22.15;9.68;;;563.80;2432.00;;;;;;5072723;28;20051;-70
2023/07/05 03:06:47;;;;;;;15.00;9.32;;;563.80;2432.00;;;;;;5072649;28;20060;-70
2023/07/05 03:09:13;;;;;;;21.10;11.18;;;563.70;2432.00;;;;;;5072683;28;20462;-69
2023/07/05 03:11:39;;;;;;;22.05;11.73;;;563.80;2432.00;;;;;;5072632;28;20035;-69
2023/07/05 03:14:05;;;;;;;17.63;10.20;;;563.70;2432.00;;;;;;5072644;28;20080;-72
2023/07/05 03:16:30;;;;;;;21.42;11.18;;;563.70;2432.00;;;;;;5072340;28;20039;-77
2023/07/05 03:18:56;;;;;;;14.70;10.73;;;563.90;2432.00;;;;;;5072567;28;20397;-69
2023/07/05 03:21:22;;;;;;;15.48;9.57;;;563.80;2432.00;;;;;;5072387;28;20025;-71
2023/07/05 03:23:47;;;;;;;17.98;8.55;;;563.80;2432.00;;;;;;5072561;28;20031;-73
2023/07/05 03:26:14;;;;;;;17.92;8.88;;;563.70;2432.00;;;;;;5072689;28;20033;-70
2023/07/05 03:28:40;;;;;;;17.52;9.10;;;563.70;2432.00;;;;;;5072500;28;20052;-69
2023/07/05 03:31:11;;;;;;;19.92;8.50;;;563.70;2432.00;;;;;;5072332;28;20025;-70
2023/07/05 03:33:38;;;;;;;26.40;9.70;;;563.70;2432.00;;;;;;5072344;28;20047;-70
2023/07/05 03:36:11;;;;;;;15.80;8.60;;;563.80;2432.00;;;;;;5075927;28;20032;-69
2023/07/05 03:38:37;;;;;;;21.10;9.05;;;563.80;2432.00;;;;;;5076188;28;20175;-73
2023/07/05 03:41:05;;;;;;;20.40;9.30;;;563.80;2432.00;;;;;;5076044;28;20032;-69
2023/07/05 03:43:35;;;;;;;17.83;8.98;;;563.80;2432.00;;;;;;5076122;28;20478;-69
2023/07/05 03:46:02;;;;;;;19.52;9.02;;;563.90;2432.00;;;;;;5075842;28;20548;-69
2023/07/05 03:48:30;;;;;;;21.33;10.15;;;564.00;2432.00;;;;;;5075731;28;20055;-70
2023/07/05 03:50:56;;;;;;;15.10;8.88;;;563.70;2432.00;;;;;;5075919;28;20025;-70
2023/07/05 03:53:22;;;;;;;20.60;9.45;;;563.80;2432.00;;;;;;5075889;28;20021;-70
2023/07/05 03:55:48;;;;;;;15.93;8.82;;;563.80;2432.00;;;;;;5075380;28;20052;-70
2023/07/05 03:58:14;;;;;;;21.00;9.75;;;563.70;2432.00;;;;;;5075668;28;20355;-69
2023/07/05 04:00:40;;;;;;;22.35;11.98;;;563.80;2432.00;;;;;;5075699;28;20036;-70
2023/07/05 04:03:05;;;;;;;21.85;10.95;;;563.80;2432.00;;;;;;5075630;28;20486;-69
2023/07/05 04:05:32;;;;;;;25.85;11.55;;;563.90;2432.00;;;;;;5075543;28;20020;-69
2023/07/05 04:07:58;;;;;;;20.60;10.77;;;563.90;2432.00;;;;;;5075730;28;20048;-70
2023/07/05 04:10:24;;;;;;;19.52;11.98;;;563.90;2432.00;;;;;;5073802;28;20482;-69
2023/07/05 04:12:49;;;;;;;21.85;10.85;;;563.80;2432.00;;;;;;5075642;28;20028;-69
2023/07/05 04:15:15;;;;;;;18.83;10.63;;;563.90;2432.00;;;;;;5075270;28;20039;-69
2023/07/05 04:17:41;;;;;;;21.40;10.18;;;563.90;2432.00;;;;;;5075350;28;20023;-69
2023/07/05 04:20:07;;;;;;;18.48;10.48;;;563.90;2432.00;;;;;;5075289;28;20032;-70
2023/07/05 04:22:38;;;;;;;24.77;9.70;;;564.00;2432.00;;;;;;5075157;28;20033;-69
2023/07/05 04:25:04;;;;;;;18.08;10.55;;;564.00;2432.00;;;;;;5074963;28;20129;-69
2023/07/05 04:27:30;;;;;;;23.20;10.68;;;564.00;2432.00;;;;;;5075163;28;20481;-69
2023/07/05 04:29:55;;;;;;;21.17;10.00;;;564.00;2432.00;;;;;;5075167;28;20047;-70
2023/07/05 04:32:21;;;;;;;17.20;9.77;;;564.10;2432.00;;;;;;5075135;28;20474;-70
2023/07/05 04:34:46;;;;;;;20.55;9.77;;;564.10;2432.00;;;;;;5074973;28;20100;-73
2023/07/05 04:37:12;;;;;;;19.63;10.10;;;564.10;2432.00;;;;;;5075165;28;20020;-70
2023/07/05 04:39:38;;;;;;;26.83;12.63;;;588.80;2432.00;;;;;;5061511;28;20028;-70
2023/07/05 04:42:04;;;;;;;20.75;10.35;;;588.90;2432.00;;;;;;5074882;28;20026;-70
2023/07/05 04:44:30;;;;;;;19.50;11.02;;;588.80;2432.00;;;;;;5074841;28;20012;-69
2023/07/05 04:46:55;;;;;;;18.13;11.07;;;588.90;2432.00;;;;;;5074538;28;20027;-71
2023/07/05 04:49:21;;;;;;;18.88;9.73;;;588.90;2432.00;;;;;;5074668;28;20012;-73
2023/07/05 04:51:46;;;;;;;21.52;9.80;;;589.00;2432.00;;;;;;5063514;28;20108;-70
2023/07/05 04:54:14;;;;;;;21.80;10.45;;;589.10;2432.00;;;;;;5072785;28;20033;-77
2023/07/05 04:56:40;;;;;;;22.92;11.07;;;589.20;2432.00;;;;;;5074532;28;20406;-75
2023/07/05 04:59:06;;;;;;;24.30;10.48;;;589.10;2432.00;;;;;;5074417;28;20028;-71
2023/07/05 05:01:32;;;;;;;16.98;10.77;;;589.20;2432.00;;;;;;5074490;28;20024;-71
2023/07/05 05:03:57;;;;;;;21.67;10.85;;;589.20;2432.00;;;;;;5074226;28;20029;-70
2023/07/05 05:06:23;;;;;;;17.38;10.52;;;589.30;2432.00;;;;;;5074533;28;20034;-71
2023/07/05 05:08:49;;;;;;;27.65;10.77;;;589.30;2432.00;;;;;;5076493;28;20074;-69
2023/07/05 05:11:15;;;;;;;21.65;10.98;;;589.40;2432.00;;;;;;5079396;28;20056;-70
2023/07/05 05:13:40;;;;;;;22.25;11.65;;;589.50;2432.00;;;;;;5074298;28;20020;-74
2023/07/05 05:16:06;;;;;;;23.10;11.95;;;589.50;2432.00;;;;;;5076741;28;20032;-69
2023/07/05 05:18:34;;;;;;;21.55;11.98;;;589.50;2432.00;;;;;;5076471;28;20090;-71
2023/07/05 05:21:00;;;;;;;19.13;11.20;;;589.60;2432.00;;;;;;5083343;28;20111;-70
2023/07/05 05:23:26;;;;;;;18.58;11.30;;;589.70;2432.00;;;;;;5077160;28;20514;-69
2023/07/05 05:25:52;;;;;;;28.63;11.65;;;614.40;2432.00;;;;;;5082573;28;20359;-69
2023/07/05 05:28:18;;;;;;;18.77;12.43;;;614.40;2432.00;;;;;;5088816;28;20063;-70
2023/07/05 05:30:45;;;;;;;23.70;12.90;;;614.50;2432.00;;;;;;5080939;28;20539;-72
2023/07/05 05:33:12;;;;;;;20.50;12.57;;;614.40;2432.00;;;;;;5079050;28;20017;-69
2023/07/05 05:35:37;;;;;;;21.38;13.43;;;614.50;2432.00;;;;;;5083370;28;20032;-72
2023/07/05 05:38:04;;;;;;;19.95;12.57;;;614.50;2432.00;;;;;;5079022;28;20036;-71
2023/07/05 05:40:32;;;;;;;19.48;13.68;;;614.60;2432.00;;;;;;5079853;28;20025;-69
2023/07/05 05:42:57;;;;;;;25.25;12.93;;;614.70;2432.00;;;;;;5079898;28;20440;-69
2023/07/05 05:45:23;;;;;;;24.45;13.25;;;614.80;2432.00;;;;;;5081507;28;20052;-69
2023/07/05 05:47:49;;;;;;;23.25;13.45;;;614.70;2432.00;;;;;;5082819;28;20016;-71
2023/07/05 05:50:15;;;;;;;23.67;13.35;;;614.70;2432.00;;;;;;5077332;28;20107;-71
2023/07/05 05:52:41;;;;;;;19.48;12.02;;;614.70;2432.00;;;;;;5078999;28;20170;-69
2023/07/05 05:55:07;;;;;;;22.33;14.32;;;614.70;2432.00;;;;;;5084871;28;20033;-70
2023/07/05 05:57:33;;;;;;;24.00;14.13;;;614.80;2432.00;;;;;;5077882;28;20028;-69
2023/07/05 05:59:59;;;;;;;24.75;13.50;;;614.90;2432.00;;;;;;5086259;28;20502;-69
2023/07/05 06:02:24;;;;;;;18.60;13.57;;;615.00;2432.00;;;;;;5079526;28;20040;-71
2023/07/05 06:04:50;;;;;;;19.35;12.45;;;615.10;2432.00;;;;;;5077170;28;20074;-69
2023/07/05 06:07:16;;;;;;;23.45;15.25;;;615.10;2432.00;;;;;;5076667;28;20464;-69
2023/07/05 06:09:49;;;;;;;26.98;14.90;;;615.10;2432.00;;;;;;5075718;28;20531;-72
2023/07/05 06:12:15;;;;;;;26.58;14.93;;;615.10;2432.00;;;;;;5078165;28;20027;-69
2023/07/05 06:14:41;;;;;;;23.23;15.02;;;615.10;2432.00;;;;;;5075270;28;20028;-69
2023/07/05 06:17:07;;;;;;;26.17;14.88;;;615.30;2432.00;;;;;;5073678;28;20081;-69
2023/07/05 06:19:33;;;;;;;21.30;14.38;;;615.30;2432.00;;;;;;5075659;28;20032;-70
2023/07/05 06:22:01;;;;;;;23.90;13.95;;;640.00;2432.00;;;;;;5078080;28;20025;-70
2023/07/05 06:24:27;;;;;;;23.00;14.95;;;615.30;2432.00;;;;;;5077671;28;20110;-73
2023/07/05 06:26:52;;;;;;;23.75;15.02;;;640.10;2432.00;;;;;;5082074;28;20483;-70
2023/07/05 06:29:18;;;;;;;22.48;14.10;;;640.20;2432.00;;;;;;5075247;28;20082;-70
2023/07/05 06:31:44;;;;;;;24.02;14.40;;;640.40;2432.00;;;;;;5079471;28;20039;-70
2023/07/05 06:34:10;;;;;;;32.38;15.38;;;640.50;2432.00;;;;;;5083145;28;20081;-70
2023/07/05 06:36:36;;;;;;;24.90;15.23;;;640.50;2432.00;;;;;;5074240;28;20024;-72
2023/07/05 06:39:02;;;;;;;25.45;15.25;;;640.60;2432.00;;;;;;5080407;28;20132;-70
2023/07/05 06:41:28;;;;;;;24.70;14.80;;;640.60;2432.00;;;;;;5075510;28;20047;-74
2023/07/05 06:43:54;;;;;;;22.90;13.90;;;640.70;2432.00;;;;;;5077451;28;20600;-70
2023/07/05 06:46:20;;;;;;;24.88;15.35;;;640.60;2432.00;;;;;;5075476;28;20112;-70
2023/07/05 06:48:46;;;;;;;26.33;14.77;;;640.80;2432.00;;;;;;5076905;28;20398;-70
2023/07/05 06:51:11;;;;;;;26.90;14.40;;;640.90;2432.00;;;;;;5077062;28;20028;-71
2023/07/05 06:53:38;;;;;;;23.13;14.15;;;665.60;2432.00;;;;;;5073174;28;20030;-72
2023/07/05 06:56:04;;;;;;;29.38;16.00;;;665.60;2432.00;;;;;;5078721;28;20108;-71
2023/07/05 06:58:30;;;;;;;23.13;14.48;;;665.70;2432.00;;;;;;5075460;28;20028;-71
2023/07/05 07:00:56;;;;;;;29.50;14.57;;;665.80;2432.00;;;;;;5074001;28;20028;-73
2023/07/05 07:03:22;;;;;;;27.45;15.23;;;665.90;2432.00;;;;;;5064563;28;20027;-71
2023/07/05 07:05:52;;;;;;;21.00;14.07;;;665.90;2432.00;;;;;;5080038;28;20024;-74
2023/07/05 07:08:18;;;;;;;20.42;13.85;;;666.00;2432.00;;;;;;5076949;28;20046;-72
2023/07/05 07:10:44;;;;;;;18.67;13.82;;;666.00;2432.00;;;;;;5080094;28;20374;-71
2023/07/05 07:13:09;;;;;;;22.95;14.45;;;666.20;2432.00;;;;;;5086686;28;20037;-71
2023/07/05 07:15:36;;;;;;;24.45;15.05;;;666.30;2432.00;;;;;;5089935;28;20573;-71
2023/07/05 07:18:02;;;;;;;24.83;13.93;;;666.30;2432.00;;;;;;5079418;28;20012;-72
2023/07/05 07:20:27;;;;;;;25.58;15.20;;;666.30;2432.00;;;;;;5086718;28;20090;-72
2023/07/05 07:22:53;;;;;;;28.80;14.38;;;666.40;2432.00;;;;;;5079131;28;20017;-71
2023/07/05 07:25:19;;;;;;;17.15;12.02;;;691.20;2432.00;;;;;;5081125;28;20027;-72
2023/07/05 07:27:45;;;;;;;34.55;17.08;;;691.20;2432.00;;;;;;5078609;28;20074;-73
2023/07/05 07:30:11;;;;;;;35.45;20.10;;;691.30;2432.00;;;;;;5080305;28;20028;-72
2023/07/05 07:32:37;;;;;;;30.80;18.75;;;691.30;2432.00;;;;;;5078843;28;20119;-72
2023/07/05 07:35:03;;;;;;;26.33;15.82;;;691.30;2432.00;;;;;;5079410;28;20820;-73
2023/07/05 07:37:32;;;;;;;25.90;15.38;;;691.40;2432.00;;;;;;5079503;28;20020;-74
2023/07/05 07:39:57;;;;;;;26.00;13.85;;;691.50;2432.00;;;;;;5080639;28;20032;-75
2023/07/05 07:42:23;;;;;;;21.10;14.10;;;691.50;2432.00;;;;;;5076289;28;20024;-72
2023/07/05 07:44:49;;;;;;;24.58;14.73;;;691.70;2432.00;;;;;;5080735;28;20470;-73
2023/07/05 07:47:14;;;;;;;21.65;13.63;;;691.60;2432.00;;;;;;5086674;28;20501;-74
2023/07/05 07:49:40;;;;;;;20.70;12.98;;;691.80;2432.00;;;;;;5078438;28;20028;-71
2023/07/05 07:52:07;;;;;;;20.45;13.63;;;691.90;2432.00;;;;;;5080610;28;20021;-72
2023/07/05 07:54:33;;;;;;;22.52;14.02;;;691.90;2432.00;;;;;;5084308;28;20104;-72
2023/07/05 07:56:59;;;;;;;25.55;15.57;;;691.90;2432.00;;;;;;5086282;28;20110;-70
2023/07/05 07:59:25;;;;;;;26.48;13.93;;;692.10;2432.00;;;;;;5082240;28;20016;-72
2023/07/05 08:01:51;;;;;;;26.63;15.88;;;716.80;2432.00;;;;;;5085945;28;20020;-71
2023/07/05 08:04:17;;;;;;;24.25;14.10;;;716.80;2432.00;;;;;;5085383;28;20025;-70
2023/07/05 08:06:49;;;;;;;25.45;14.48;;;716.90;2432.00;;;;;;5086520;28;20534;-71
2023/07/05 08:09:22;;;;;;;20.30;12.20;;;716.90;2432.00;;;;;;5080011;28;20056;-70
2023/07/05 08:11:48;;;;;;;16.80;11.93;;;716.90;2432.00;;;;;;5080124;28;20047;-71
2023/07/05 08:14:17;;;;;;;19.75;10.68;;;716.90;2432.00;;;;;;5075548;28;20025;-71
2023/07/05 08:16:44;;;;;;;21.63;10.02;;;716.90;2432.00;;;;;;5077617;28;20115;-74
2023/07/05 08:19:10;;;;;;;19.63;11.35;;;716.90;2432.00;;;;;;5085847;28;20017;-69
2023/07/05 08:21:38;;;;;;;17.52;10.10;;;717.00;2432.00;;;;;;5081337;28;20024;-71
2023/07/05 08:24:05;;;;;;;19.13;10.02;;;717.00;2432.00;;;;;;5075144;28;20037;-70
2023/07/05 08:26:31;;;;;;;13.40;9.80;;;717.10;2432.00;;;;;;5077840;28;20039;-71
2023/07/05 08:28:57;;;;;;;19.20;10.15;;;717.20;2432.00;;;;;;5077115;28;20024;-72
2023/07/05 08:31:23;;;;;;;16.55;10.32;;;717.20;2432.00;;;;;;5077724;28;20085;-72
2023/07/05 08:33:49;;;;;;;15.35;10.27;;;;;;;;;;5078173;28;20025;-70
2023/07/05 08:36:15;;;;;;;16.10;10.18;;;717.40;2432.00;;;;;;5077199;28;20036;-71
2023/07/05 08:38:52;;;;;;;16.67;10.27;;;717.40;2432.00;;;;;;5084738;28;20027;-72
2023/07/05 08:41:52;;;;;;;21.05;12.77;;;717.40;2432.00;;;;;;5079377;28;20154;-71
2023/07/05 08:44:43;;;;;;;14.38;9.32;;;717.40;2432.00;;;;;;5071115;28;20079;-72
2023/07/05 08:47:11;;;;;;;15.70;9.48;;;717.40;2432.00;;;;;;5080197;28;20112;-71
2023/07/05 08:49:54;;;;;;;14.88;9.57;;;717.40;2432.00;;;;;;5085316;28;20414;-70
2023/07/05 08:52:50;;;;;;;13.10;9.38;;;717.50;2432.00;;;;;;5072701;28;20027;-71
2023/07/05 08:55:21;;;;;;;;;;;717.40;2432.00;;;;;;5045771;28;20494;-71
2023/07/05 08:57:53;;;;;;;20.20;7.78;;;717.50;2432.00;;;;;;5041005;28;19916;-71
2023/07/05 09:00:45;;;;;;;10.75;7.07;;;717.50;2432.00;;;;;;5044300;28;20037;-70
2023/07/05 09:03:12;;;;;;;16.38;8.77;;;717.40;2432.00;;;;;;5042826;28;20045;-70
2023/07/05 09:05:49;;;;;;;13.20;8.63;;;717.50;2432.00;;;;;;5038872;28;20156;-71
2023/07/05 09:08:40;;;;;;;13.00;8.45;;;717.60;2432.00;;;;;;5050779;28;20033;-74
2023/07/05 09:11:31;;;;;;;13.00;8.73;;;717.70;2432.00;;;;;;5036817;28;20033;-71
2023/07/05 09:14:12;;;;;;;11.23;7.68;;;742.40;2432.00;;;;;;5019349;28;20095;-70
2023/07/05 09:17:05;;;;;;;12.55;7.75;;;742.40;2432.00;;;;;;5040302;28;20036;-72
2023/07/05 09:19:45;;;;;;;13.75;8.27;;;742.50;2432.00;;;;;;4966508;28;20037;-71
2023/07/05 09:22:17;;;;;;;15.80;8.52;;;742.50;2432.00;;;;;;4967571;28;20054;-71
2023/07/05 09:24:44;;;;;;;10.77;7.78;;;742.80;2432.00;;;;;;4963091;28;20055;-71
2023/07/05 09:27:21;;;;;;;11.45;7.57;;;742.80;2432.00;;;;;;4959369;28;20035;-76
2023/07/05 09:30:09;;;;;;;10.55;7.38;;;742.90;2432.00;;;;;;4964749;28;20110;-72
2023/07/05 09:32:39;;;;;;;10.73;7.13;;;742.90;2304.00;;;;;;5006055;28;20117;-72
2023/07/05 09:35:19;;;;;;;8.68;6.30;;;742.90;2227.20;;;;;;5016991;28;20029;-72
2023/07/05 09:38:00;;;;;;;10.70;6.65;;;742.90;2099.20;;;;;;5013859;28;20123;-72
2023/07/05 09:40:34;;;;;;;10.05;6.47;;;743.00;2099.20;;;;;;5010179;28;20037;-71
2023/07/05 09:43:12;;;;;;;9.43;6.57;;;743.10;2124.80;;;;;;5014317;28;20045;-73
2023/07/05 09:45:38;;;;;;;12.10;6.60;;;768.10;2227.20;;;;;;5008948;28;20026;-71
2023/07/05 09:48:12;;;;;;;10.95;7.55;;;768.20;2099.20;;;;;;5015242;28;20058;-72
2023/07/05 09:50:44;;;;;;;13.15;8.60;;;768.20;1996.80;;;;;;5025771;28;20029;-71
2023/07/05 09:53:35;;;;;;;7.05;4.95;;;768.30;1971.20;;;;;;5015913;28;20029;-71
2023/07/05 09:56:05;;;;;;;7.68;5.78;;;768.40;1920.00;;;;;;5037731;28;20165;-72
2023/07/05 09:58:33;;;;;;;11.10;6.63;;;768.40;1868.80;;;;;;5067224;28;20378;-71
2023/07/05 10:01:04;;;;;;;7.25;5.50;;;768.60;1894.40;;;;;;5079910;28;20024;-73
2023/07/05 10:03:36;;;;;;;8.48;5.85;;;768.70;1817.60;;;;;;5080683;28;20083;-74
2023/07/05 10:06:07;;;;;;;11.32;5.57;;;768.90;1843.20;;;;;;5071728;28;20020;-76
2023/07/05 10:08:43;;;;;;;10.95;6.07;;;793.80;1868.80;;;;;;5074804;28;20375;-74
2023/07/05 10:11:33;;;;;;;14.82;7.78;;;794.00;1868.80;;;;;;5080343;28;20020;-76
2023/07/05 10:14:12;;;;;;;11.93;6.53;;;794.10;1894.40;;;;;;5073668;28;20028;-75
2023/07/05 10:16:45;;;;;;;8.27;5.75;;;794.20;1766.40;;;;;;5078684;28;20033;-74
2023/07/05 10:19:24;;;;;;;8.65;5.53;;;794.40;1689.60;;;;;;5076735;28;20012;-74
2023/07/05 10:21:57;;;;;;;9.93;6.35;;;794.40;1740.80;;;;;;5075350;28;20021;-73
2023/07/05 10:24:24;;;;;;;12.45;6.63;;;819.20;1766.40;;;;;;5077933;28;20028;-74
2023/07/05 10:27:02;;;;;;;9.13;6.60;;;794.50;1740.80;;;;;;5086844;28;20037;-73
2023/07/05 10:29:29;;;;;;;10.65;7.22;;;819.30;1792.00;;;;;;5075838;28;20382;-74
2023/07/05 10:32:00;;;;;;;8.48;6.30;;;819.40;1740.80;;;;;;5074766;28;20031;-74
2023/07/05 10:34:27;;;;;;;8.00;5.90;;;819.50;1740.80;;;;;;5078445;28;20025;-73
2023/07/05 10:36:54;;;;;;;9.85;6.65;;;819.60;1689.60;;;;;;5078451;28;20036;-73
2023/07/05 10:39:26;;;;;;;8.98;6.35;;;819.60;1638.40;;;;;;5078342;28;20027;-76
2023/07/05 10:41:57;;;;;;;11.52;7.43;;;819.60;1664.00;;;;;;5075210;28;20020;-73
2023/07/05 10:44:34;;;;;;;10.13;7.00;;;819.40;1740.80;;;;;;5080810;28;20090;-74
2023/07/05 10:47:03;;;;;;;11.82;7.10;;;819.50;1689.60;;;;;;5083262;28;20405;-74
2023/07/05 10:49:31;;;;;;;9.10;7.32;;;819.60;1664.00;;;;;;5083336;28;20028;-75
2023/07/05 10:52:03;;;;;;;9.70;6.47;;;819.60;1664.00;;;;;;5079397;28;20020;-74
2023/07/05 10:54:44;;;;;;;8.98;6.20;;;819.80;1664.00;;;;;;5080223;28;20036;-75
2023/07/05 10:57:29;;;;;;;7.72;5.75;;;819.90;1612.80;;;;;;5076143;28;20074;-73
2023/07/05 11:00:39;;;;;;;9.70;6.90;;;819.90;1561.60;;;;;;5079655;28;20035;-74
2023/07/05 11:03:31;;;;;;;8.30;5.50;;;820.10;1587.20;;;;;;5075341;28;20021;-74
2023/07/05 11:05:58;;;;;;;7.82;5.25;;;844.90;1587.20;;;;;;5080122;28;20037;-74
2023/07/05 11:08:29;;;;;;;8.93;5.03;;;844.90;1587.20;;;;;;5080460;28;20013;-73
2023/07/05 11:10:58;;;;;;;7.30;5.07;;;845.10;1561.60;;;;;;5078144;28;20335;-75
2023/07/05 11:13:24;;;;;;;7.38;5.32;;;845.20;1536.00;;;;;;5073396;28;20037;-74
2023/07/05 11:15:50;;;;;;;7.55;4.70;;;845.10;1459.20;;;;;;5079245;28;20118;-73
2023/07/05 11:18:18;;;;;;;7.22;5.72;;;845.10;1459.20;;;;;;5075496;28;20824;-75
2023/07/05 11:20:48;;;;;;;13.00;6.15;;;845.10;1484.80;;;;;;5077527;28;20036;-73
2023/07/05 11:23:54;;;;;;;7.80;6.47;;;845.10;1561.60;;;;;;5074156;28;20028;-74
2023/07/05 11:26:29;;;;;;;10.05;5.60;;;845.20;1587.20;;;;;;5074253;28;20036;-73
2023/07/05 11:28:55;;;;;;;7.10;5.45;;;845.20;1587.20;;;;;;5078733;28;20107;-73
2023/07/05 11:31:26;;;;;;;7.93;5.95;;;845.40;1561.60;;;;;;5072675;28;20192;-74
2023/07/05 11:34:20;;;;;;;10.88;6.45;;;845.40;1510.40;;;;;;5075562;28;20089;-74
2023/07/05 11:36:50;;;;;;;8.20;5.85;;;845.30;1536.00;;;;;;5076786;28;20395;-74
2023/07/05 11:39:35;;;;;;;7.82;5.65;;;845.20;1510.40;;;;;;5077471;28;20012;-74
2023/07/05 11:42:16;;;;;;;11.07;5.70;;;845.30;1510.40;;;;;;5074406;28;20478;-74
2023/07/05 11:45:07;;;;;;;9.15;5.45;;;845.40;1484.80;;;;;;5076595;28;20052;-76
2023/07/05 11:47:33;;;;;;;8.18;5.50;;;845.20;1484.80;;;;;;5081220;28;20035;-73
2023/07/05 11:50:01;;;;;;;7.18;4.63;;;845.40;1510.40;;;;;;5079514;28;20020;-74
2023/07/05 11:52:32;;;;;;;7.78;5.45;;;845.60;1484.80;;;;;;5077609;28;20060;-74
2023/07/05 11:54:57;;;;;;;12.25;7.03;;;845.50;1510.40;;;;;;5078441;28;20028;-74
2023/07/05 11:57:25;;;;;;;10.82;6.75;;;845.50;1536.00;;;;;;5061001;28;20441;-74
2023/07/05 12:00:10;;;;;;;7.38;5.78;;;845.60;1536.00;;;;;;5077205;28;20035;-74
2023/07/05 12:02:48;;;;;;;9.82;6.00;;;845.70;1536.00;;;;;;5083272;28;20024;-74
2023/07/05 12:05:20;;;;;;;10.00;6.53;;;870.50;1484.80;;;;;;5084913;28;20086;-74
2023/07/05 12:07:52;;;;;;;8.70;5.85;;;870.50;1459.20;;;;;;5077096;28;20016;-74
2023/07/05 12:10:27;;;;;;;9.77;6.82;;;870.50;1484.80;;;;;;5087005;28;20135;-75
2023/07/05 12:12:52;;;;;;;10.00;6.20;;;870.50;1484.80;;;;;;5080919;28;20027;-74
2023/07/05 12:15:18;;;;;;;11.40;6.43;;;870.60;1484.80;;;;;;5078083;28;20044;-74
2023/07/05 12:17:45;;;;;;;9.45;6.00;;;870.60;1484.80;;;;;;5083018;28;20027;-75
2023/07/05 12:20:17;;;;;;;8.65;5.85;;;870.80;1433.60;;;;;;5079119;28;20017;-74